CheckWX is a tool to help pilots better visualize weather data.  It is not intended as a substitute for an official pre-flight weather briefing.

15:14:36 UTC

KCKV METAR
Outlaw Field Airport
Clarksville, Tennessee, USA
Current

23 mins ago

KCKV 261452Z AUTO 25008KT 10SM CLR 28/19 A3011 RMK AO2 SLP189 T02830194 56007 $
Observed
May-26 @ 14:52 UTC
Wind
  • 250° at 8 KTS
Visibility
10 SM
Flight Rules
VFR
Cloud Levels
  • Clear skies
Temperature
28°C / 82°F
Dewpoint
19°C / 66°F
Heat Index
29°C / 84°F
Humidity
58%
Altimeter
30.11" Hg
Pressure
1019.62 hPa
Previous

1 hour ago

KCKV 261352Z AUTO 24007KT 10SM CLR 26/18 A3012 RMK AO2 SLP191 T02610183 $
Observed
May-26 @ 13:52 UTC
Wind
  • 240° at 7 KTS
Visibility
10 SM
Flight Rules
VFR
Cloud Levels
  • Clear skies
Temperature
26°C / 79°F
Dewpoint
18°C / 64°F
Humidity
61%
Altimeter
30.12" Hg
Pressure
1020.02 hPa
Previous

2 hours ago

KCKV 261252Z AUTO 23006KT 10SM CLR 24/18 A3012 RMK AO2 SLP192 T02440183 $
Observed
May-26 @ 12:52 UTC
Wind
  • 230° at 6 KTS
Visibility
10 SM
Flight Rules
VFR
Cloud Levels
  • Clear skies
Temperature
24°C / 75°F
Dewpoint
18°C / 64°F
Humidity
69%
Altimeter
30.12" Hg
Pressure
1020.02 hPa